createdAt,value
2019-01-26T00:00:33.028Z,63.10
2019-01-26T00:01:08.438Z,62.80
2019-01-26T00:01:40.925Z,63.10
2019-01-26T00:02:13.660Z,62.90
2019-01-26T00:02:46.126Z,63.00
2019-01-26T00:03:18.593Z,63.20
2019-01-26T00:03:51.112Z,63.10
2019-01-26T00:04:23.558Z,63.20
2019-01-26T00:04:56.387Z,63.20
2019-01-26T00:05:28.872Z,63.30
2019-01-26T00:06:01.366Z,63.30
2019-01-26T00:06:34.177Z,63.10
2019-01-26T00:07:06.679Z,63.50
2019-01-26T00:07:39.167Z,62.90
2019-01-26T00:08:11.658Z,62.90
2019-01-26T00:08:44.127Z,63.00
2019-01-26T00:09:16.609Z,63.00
2019-01-26T00:09:49.425Z,63.10
2019-01-26T00:10:21.899Z,63.00
2019-01-26T00:10:54.775Z,62.70
2019-01-26T00:11:27.249Z,62.70
2019-01-26T00:11:59.713Z,62.80
2019-01-26T00:12:32.530Z,62.90
2019-01-26T00:13:05.011Z,63.00
2019-01-26T00:13:37.470Z,63.10
2019-01-26T00:14:10.325Z,63.20
2019-01-26T00:14:43.064Z,62.70
2019-01-26T00:15:15.553Z,62.60
2019-01-26T00:15:48.326Z,62.70
2019-01-26T00:16:21.194Z,62.70
2019-01-26T00:16:53.788Z,62.90
2019-01-26T00:17:26.279Z,63.20
2019-01-26T00:17:58.747Z,63.30
2019-01-26T00:18:31.224Z,63.20
2019-01-26T00:19:03.699Z,63.30
2019-01-26T00:19:36.502Z,63.40
2019-01-26T00:20:08.992Z,63.60
2019-01-26T00:20:41.499Z,63.70
2019-01-26T00:21:13.970Z,63.80
2019-01-26T00:21:46.457Z,63.50
2019-01-26T00:22:18.938Z,63.20
2019-01-26T00:22:51.418Z,63.20
2019-01-26T00:23:23.912Z,63.40
2019-01-26T00:23:56.665Z,63.40
2019-01-26T00:24:29.150Z,63.40
2019-01-26T00:25:01.636Z,63.40
2019-01-26T00:25:34.102Z,63.50
2019-01-26T00:26:06.606Z,63.60
2019-01-26T00:26:39.517Z,63.60
2019-01-26T00:27:12.393Z,63.20
2019-01-26T00:27:44.850Z,63.20
2019-01-26T00:28:17.331Z,63.10
2019-01-26T00:28:49.826Z,63.20
2019-01-26T00:29:22.641Z,63.00
2019-01-26T00:29:55.111Z,62.80
2019-01-26T00:30:27.577Z,62.80
2019-01-26T00:31:00.435Z,62.90
2019-01-26T00:31:32.933Z,63.00
2019-01-26T00:32:05.875Z,63.10
2019-01-26T00:32:38.357Z,63.00
2019-01-26T00:33:10.826Z,62.90
2019-01-26T00:33:43.503Z,63.10
2019-01-26T00:34:16.070Z,63.20
2019-01-26T00:34:48.960Z,63.30
2019-01-26T00:35:24.207Z,63.50
2019-01-26T00:35:56.736Z,63.50
2019-01-26T00:36:29.227Z,63.50
2019-01-26T00:37:01.740Z,63.60
2019-01-26T00:37:34.221Z,63.50
2019-01-26T00:38:06.706Z,63.40
2019-01-26T00:38:39.174Z,63.50
2019-01-26T00:39:11.659Z,63.40
2019-01-26T00:39:45.143Z,63.00
2019-01-26T00:40:17.716Z,63.00
2019-01-26T00:40:50.179Z,62.90
2019-01-26T00:41:22.658Z,62.90
2019-01-26T00:41:55.133Z,62.80
2019-01-26T00:42:27.635Z,62.90
2019-01-26T00:43:00.118Z,63.00
2019-01-26T00:43:32.588Z,63.20
2019-01-26T00:44:05.069Z,63.30
2019-01-26T00:44:37.542Z,63.40
2019-01-26T00:45:10.110Z,63.60
2019-01-26T00:45:42.558Z,63.50
2019-01-26T00:46:15.043Z,63.40
2019-01-26T00:46:47.518Z,63.40
2019-01-26T00:47:20.615Z,63.60
2019-01-26T00:47:53.125Z,63.80
2019-01-26T00:48:25.590Z,64.00
2019-01-26T00:48:58.399Z,64.10
2019-01-26T00:49:30.884Z,64.00
2019-01-26T00:50:04.247Z,63.80
2019-01-26T00:50:36.739Z,63.80
2019-01-26T00:51:09.214Z,63.60
2019-01-26T00:51:42.037Z,63.70
2019-01-26T00:52:14.983Z,63.80
2019-01-26T00:52:47.474Z,63.90
2019-01-26T00:53:20.342Z,63.90
2019-01-26T00:53:52.828Z,63.90
2019-01-26T00:54:25.311Z,63.90
2019-01-26T00:54:57.791Z,63.80
2019-01-26T00:55:30.250Z,63.90
2019-01-26T00:56:02.740Z,64.10
2019-01-26T00:56:35.510Z,64.20
2019-01-26T00:57:07.978Z,64.30
2019-01-26T00:57:40.451Z,64.50
2019-01-26T00:58:13.614Z,64.50
2019-01-26T00:58:46.144Z,64.50
2019-01-26T00:59:18.614Z,64.60
2019-01-26T00:59:51.094Z,64.80
2019-01-26T01:00:23.973Z,64.70
2019-01-26T01:00:56.451Z,64.50
2019-01-26T01:01:28.927Z,64.50
2019-01-26T01:02:01.415Z,64.50
2019-01-26T01:02:33.887Z,64.50
2019-01-26T01:03:06.348Z,64.50
2019-01-26T01:03:38.862Z,64.50
2019-01-26T01:04:11.427Z,65.30
2019-01-26T01:04:43.890Z,64.80
2019-01-26T01:05:16.771Z,64.80
2019-01-26T01:05:49.234Z,64.80
2019-01-26T01:06:25.859Z,64.90
2019-01-26T01:06:56.680Z,64.70
2019-01-26T01:07:29.138Z,64.70
2019-01-26T01:08:01.994Z,64.50
2019-01-26T01:08:34.599Z,64.50
2019-01-26T01:09:08.187Z,64.60
2019-01-26T01:09:41.039Z,64.60
2019-01-26T01:10:14.958Z,64.60
2019-01-26T01:10:47.431Z,64.50
2019-01-26T01:11:19.896Z,64.40
2019-01-26T01:11:52.637Z,64.50
2019-01-26T01:12:25.489Z,64.70
2019-01-26T01:12:57.942Z,64.60
2019-01-26T01:13:30.415Z,64.60
2019-01-26T01:14:03.055Z,64.50
2019-01-26T01:14:35.524Z,64.60
2019-01-26T01:15:09.728Z,64.40
2019-01-26T01:15:42.212Z,64.50
2019-01-26T01:16:14.691Z,64.60
2019-01-26T01:16:47.518Z,64.40
2019-01-26T01:17:20.282Z,64.80
2019-01-26T01:17:52.764Z,64.80
2019-01-26T01:18:25.525Z,65.10
2019-01-26T01:18:58.315Z,64.90
2019-01-26T01:19:30.743Z,64.80
2019-01-26T01:20:04.763Z,64.80
2019-01-26T01:20:37.282Z,64.80
2019-01-26T01:21:09.735Z,64.70
2019-01-26T01:21:42.240Z,64.80
2019-01-26T01:22:14.699Z,64.90
2019-01-26T01:22:47.550Z,64.80
2019-01-26T01:23:20.033Z,64.90
2019-01-26T01:23:52.522Z,65.00
2019-01-26T01:24:24.995Z,65.00
2019-01-26T01:24:57.470Z,65.00
2019-01-26T01:25:30.228Z,64.90
2019-01-26T01:26:02.722Z,64.90
2019-01-26T01:26:35.205Z,64.70
2019-01-26T01:27:07.681Z,64.90
2019-01-26T01:27:40.142Z,65.00
2019-01-26T01:28:13.051Z,64.90
2019-01-26T01:28:45.850Z,64.80
2019-01-26T01:29:18.359Z,64.70
2019-01-26T01:29:50.845Z,64.90
2019-01-26T01:30:23.645Z,64.90
2019-01-26T01:30:56.109Z,64.90
2019-01-26T01:31:28.623Z,64.80
2019-01-26T01:32:01.094Z,64.80
2019-01-26T01:32:33.567Z,64.80
2019-01-26T01:33:06.372Z,65.00
2019-01-26T01:33:38.850Z,65.10
2019-01-26T01:34:11.344Z,65.00
2019-01-26T01:34:43.856Z,65.00
2019-01-26T01:35:16.699Z,65.20
2019-01-26T01:35:49.181Z,65.30
2019-01-26T01:36:21.946Z,65.40
2019-01-26T01:36:54.573Z,65.30
2019-01-26T01:37:27.056Z,65.20
2019-01-26T01:37:59.846Z,65.20
2019-01-26T01:38:32.616Z,65.10
2019-01-26T01:39:07.645Z,65.00
2019-01-26T01:39:40.565Z,64.90
2019-01-26T01:40:13.982Z,64.70
2019-01-26T01:40:46.463Z,64.90
2019-01-26T01:41:18.972Z,65.10
2019-01-26T01:41:51.438Z,65.30
2019-01-26T01:42:23.956Z,65.30
2019-01-26T01:42:56.434Z,65.50
2019-01-26T01:43:28.905Z,65.30
2019-01-26T01:44:01.369Z,65.20
2019-01-26T01:44:34.191Z,65.20
2019-01-26T01:45:08.812Z,64.80
2019-01-26T01:45:41.303Z,65.90
2019-01-26T01:46:13.787Z,65.30
2019-01-26T01:46:46.268Z,65.40
2019-01-26T01:47:19.364Z,65.60
2019-01-26T01:47:51.866Z,65.80
2019-01-26T01:48:24.350Z,65.90
2019-01-26T01:48:56.828Z,65.70
2019-01-26T01:49:29.294Z,65.70
2019-01-26T01:50:01.770Z,65.70
2019-01-26T01:50:34.256Z,65.50
2019-01-26T01:51:06.735Z,65.50
2019-01-26T01:51:39.207Z,65.70
2019-01-26T01:52:12.011Z,65.70
2019-01-26T01:52:44.496Z,65.70
2019-01-26T01:53:17.347Z,65.60
2019-01-26T01:53:49.886Z,65.70
2019-01-26T01:54:22.369Z,65.80
2019-01-26T01:54:54.842Z,65.80
2019-01-26T01:55:27.311Z,65.80
2019-01-26T01:55:59.791Z,65.60
2019-01-26T01:56:32.274Z,65.70
2019-01-26T01:57:05.040Z,65.70
2019-01-26T01:57:37.498Z,65.80
2019-01-26T01:58:10.326Z,66.00
2019-01-26T01:58:42.814Z,65.90
2019-01-26T01:59:15.301Z,65.90
2019-01-26T01:59:48.107Z,65.90
2019-01-26T02:00:22.518Z,66.30
2019-01-26T02:00:55.011Z,66.20
2019-01-26T02:01:27.486Z,66.30
2019-01-26T02:01:59.957Z,66.30
2019-01-26T02:02:32.418Z,66.20
2019-01-26T02:03:04.891Z,66.10
2019-01-26T02:03:37.658Z,66.20
2019-01-26T02:04:10.176Z,66.30
2019-01-26T02:04:42.656Z,66.40
2019-01-26T02:05:15.447Z,66.30
2019-01-26T02:05:48.241Z,66.20
2019-01-26T02:06:20.740Z,66.20
2019-01-26T02:06:53.213Z,66.20
2019-01-26T02:07:25.706Z,66.20
2019-01-26T02:07:58.636Z,66.30
2019-01-26T02:08:31.102Z,66.40
2019-01-26T02:09:07.214Z,66.30
2019-01-26T02:09:40.083Z,66.30
2019-01-26T02:10:14.190Z,66.40
2019-01-26T02:10:46.669Z,66.50
2019-01-26T02:11:19.134Z,66.40
2019-01-26T02:11:51.605Z,66.50
2019-01-26T02:12:24.433Z,66.70
2019-01-26T02:12:56.900Z,66.70
2019-01-26T02:13:29.350Z,66.60
2019-01-26T02:14:02.356Z,66.60
2019-01-26T02:14:34.813Z,66.70
2019-01-26T02:15:08.325Z,66.80
2019-01-26T02:15:41.137Z,66.70
2019-01-26T02:16:13.623Z,66.90
2019-01-26T02:16:50.074Z,67.00
2019-01-26T02:17:20.390Z,67.10
2019-01-26T02:17:52.858Z,67.10
2019-01-26T02:18:25.772Z,67.00
2019-01-26T02:18:58.246Z,67.10
2019-01-26T02:19:30.722Z,67.20
2019-01-26T02:20:04.543Z,67.20
2019-01-26T02:20:37.049Z,67.30
2019-01-26T02:21:10.218Z,67.30
2019-01-26T02:21:42.786Z,67.60
2019-01-26T02:22:15.258Z,67.70
2019-01-26T02:22:47.745Z,67.80
2019-01-26T02:23:20.210Z,67.80
2019-01-26T02:23:52.670Z,67.80
2019-01-26T02:24:25.175Z,67.90
2019-01-26T02:24:58.031Z,68.10
2019-01-26T02:25:30.867Z,68.20
2019-01-26T02:26:03.569Z,68.10
2019-01-26T02:26:36.078Z,68.10
2019-01-26T02:27:08.562Z,68.20
2019-01-26T02:27:41.034Z,68.30
2019-01-26T02:28:13.492Z,68.30
2019-01-26T02:28:45.972Z,68.10
2019-01-26T02:29:18.446Z,68.10
2019-01-26T02:29:50.954Z,68.10
2019-01-26T02:30:23.532Z,68.20
2019-01-26T02:30:56.023Z,68.30
2019-01-26T02:31:28.852Z,68.10
2019-01-26T02:32:01.319Z,68.10
2019-01-26T02:32:33.921Z,68.20
2019-01-26T02:33:06.395Z,68.30
2019-01-26T02:33:38.868Z,68.20
2019-01-26T02:34:11.352Z,68.30
2019-01-26T02:34:43.829Z,68.20
2019-01-26T02:35:16.569Z,68.30
2019-01-26T02:35:49.067Z,68.30
2019-01-26T02:36:21.551Z,68.50
2019-01-26T02:36:54.049Z,68.60
2019-01-26T02:37:26.528Z,68.60
2019-01-26T02:37:59.011Z,68.80
2019-01-26T02:38:31.873Z,69.00
2019-01-26T02:39:06.606Z,69.20
2019-01-26T02:39:39.101Z,69.20
2019-01-26T02:40:12.276Z,69.90
2019-01-26T02:40:44.740Z,69.40
2019-01-26T02:41:17.198Z,69.60
2019-01-26T02:41:50.007Z,69.70
2019-01-26T02:42:22.909Z,70.40
2019-01-26T02:42:55.988Z,69.80
2019-01-26T02:43:28.447Z,69.70
2019-01-26T02:44:00.931Z,69.60
2019-01-26T02:44:33.390Z,69.60
2019-01-26T02:45:06.633Z,69.70
2019-01-26T02:45:39.111Z,69.80
2019-01-26T02:46:11.583Z,69.90
2019-01-26T02:46:44.065Z,70.20
2019-01-26T02:47:16.543Z,70.40
2019-01-26T02:47:49.038Z,70.00
2019-01-26T02:48:21.514Z,70.50
2019-01-26T02:48:53.987Z,70.60
2019-01-26T02:49:26.469Z,70.50
2019-01-26T02:49:58.941Z,70.40
2019-01-26T02:50:31.731Z,70.50
2019-01-26T02:51:04.207Z,70.70
2019-01-26T02:51:36.962Z,70.60
2019-01-26T02:52:09.435Z,70.60
2019-01-26T02:52:41.936Z,70.70
2019-01-26T02:53:14.448Z,70.90
2019-01-26T02:53:46.916Z,71.10
2019-01-26T02:54:20.013Z,71.60
2019-01-26T02:54:52.813Z,71.90
2019-01-26T02:55:25.273Z,72.10
2019-01-26T02:55:57.752Z,72.30
2019-01-26T02:56:30.229Z,72.30
2019-01-26T02:57:02.802Z,72.70
2019-01-26T02:57:35.277Z,72.80
2019-01-26T02:58:07.868Z,72.90
2019-01-26T02:58:40.701Z,72.90
2019-01-26T02:59:13.197Z,72.90
2019-01-26T02:59:45.661Z,73.00
2019-01-26T03:00:20.767Z,73.10
2019-01-26T03:00:53.605Z,73.40
2019-01-26T03:01:26.072Z,73.50
2019-01-26T03:01:58.537Z,73.60
2019-01-26T03:02:30.998Z,73.70
2019-01-26T03:03:03.875Z,73.60
2019-01-26T03:03:36.807Z,73.70
2019-01-26T03:04:09.307Z,73.90
2019-01-26T03:04:42.159Z,74.10
2019-01-26T03:05:14.672Z,74.10
2019-01-26T03:05:48.385Z,74.20
2019-01-26T03:06:20.866Z,73.80
2019-01-26T03:06:53.343Z,73.90
2019-01-26T03:07:25.823Z,73.70
2019-01-26T03:07:58.295Z,73.50
2019-01-26T03:08:30.773Z,73.70
2019-01-26T03:09:05.475Z,73.70
2019-01-26T03:09:37.971Z,73.90
2019-01-26T03:10:12.626Z,74.20
2019-01-26T03:10:45.108Z,74.40
2019-01-26T03:11:17.583Z,74.20
2019-01-26T03:11:50.056Z,74.30
2019-01-26T03:12:22.523Z,74.60
2019-01-26T03:12:55.001Z,74.80
2019-01-26T03:13:27.782Z,74.80
2019-01-26T03:14:00.262Z,75.00
2019-01-26T03:14:32.732Z,75.20
2019-01-26T03:15:07.061Z,75.50
2019-01-26T03:15:41.532Z,75.80
2019-01-26T03:16:14.546Z,76.00
2019-01-26T03:16:47.032Z,76.30
2019-01-26T03:17:19.494Z,76.60
2019-01-26T03:17:52.361Z,76.80
2019-01-26T03:18:24.823Z,76.60
2019-01-26T03:18:57.491Z,76.50
2019-01-26T03:19:30.295Z,76.30
2019-01-26T03:20:03.975Z,76.30
2019-01-26T03:20:36.506Z,76.30
2019-01-26T03:21:08.976Z,76.50
2019-01-26T03:21:41.449Z,77.30
2019-01-26T03:22:13.976Z,77.10
2019-01-26T03:22:46.415Z,77.00
2019-01-26T03:23:19.238Z,77.60
2019-01-26T03:23:52.019Z,78.20
2019-01-26T03:24:24.488Z,78.40
2019-01-26T03:24:56.985Z,78.70
2019-01-26T03:25:29.459Z,79.10
2019-01-26T03:26:01.979Z,79.30
2019-01-26T03:26:34.464Z,79.40
2019-01-26T03:27:07.294Z,79.90
2019-01-26T03:27:39.780Z,80.10
2019-01-26T03:28:12.563Z,80.50
2019-01-26T03:28:45.029Z,80.60
2019-01-26T03:29:17.500Z,80.90
2019-01-26T03:29:50.280Z,81.10
2019-01-26T03:30:24.615Z,81.20
2019-01-26T03:30:57.089Z,81.70
2019-01-26T03:31:29.948Z,82.10
2019-01-26T03:32:02.454Z,82.40
2019-01-26T03:32:35.247Z,82.80
2019-01-26T03:33:07.738Z,83.20
2019-01-26T03:33:40.209Z,83.20
2019-01-26T03:34:12.681Z,83.80
2019-01-26T03:34:45.150Z,84.80
2019-01-26T03:35:18.033Z,84.60
2019-01-26T03:35:50.512Z,84.70
2019-01-26T03:36:22.974Z,85.20
2019-01-26T03:36:55.492Z,85.40
2019-01-26T03:37:27.963Z,85.60
2019-01-26T03:38:00.438Z,85.60
2019-01-26T03:38:32.906Z,85.60
2019-01-26T03:39:07.908Z,85.80
2019-01-26T03:39:40.392Z,86.00
2019-01-26T03:40:14.372Z,86.80
2019-01-26T03:40:47.210Z,86.30
2019-01-26T03:41:20.393Z,87.00
2019-01-26T03:41:53.255Z,87.10
2019-01-26T03:42:25.754Z,87.20
2019-01-26T03:42:58.737Z,87.50
2019-01-26T03:43:31.223Z,87.80
2019-01-26T03:44:04.128Z,88.00
2019-01-26T03:44:36.603Z,88.40
2019-01-26T03:45:10.199Z,88.10
2019-01-26T03:45:42.676Z,88.30
2019-01-26T03:46:15.270Z,88.40
2019-01-26T03:46:48.139Z,88.60
2019-01-26T03:47:20.595Z,89.30
2019-01-26T03:47:53.405Z,89.60
2019-01-26T03:48:25.975Z,89.50
2019-01-26T03:48:59.201Z,89.30
2019-01-26T03:49:32.826Z,89.60
2019-01-26T03:50:06.026Z,89.60
2019-01-26T03:50:38.512Z,89.80
2019-01-26T03:51:11.343Z,90.00
2019-01-26T03:51:44.493Z,89.90
2019-01-26T03:52:16.972Z,89.90
2019-01-26T03:52:49.753Z,90.10
2019-01-26T03:53:22.242Z,90.00
2019-01-26T03:53:54.715Z,90.10
2019-01-26T03:54:27.190Z,90.20
2019-01-26T03:54:59.660Z,90.20
2019-01-26T03:55:32.142Z,90.70
2019-01-26T03:56:04.648Z,90.70
2019-01-26T03:56:37.142Z,90.60
2019-01-26T03:57:10.042Z,90.60
2019-01-26T03:57:42.611Z,90.80
2019-01-26T03:58:15.093Z,91.00
2019-01-26T03:58:47.599Z,91.10
2019-01-26T03:59:20.089Z,91.10
2019-01-26T03:59:52.894Z,91.20
2019-01-26T04:00:26.450Z,91.20
2019-01-26T04:00:58.933Z,91.10
2019-01-26T04:01:31.408Z,91.20
2019-01-26T04:02:04.254Z,91.30
2019-01-26T04:02:36.724Z,91.40
2019-01-26T04:03:09.181Z,91.60
2019-01-26T04:03:41.656Z,91.70
2019-01-26T04:04:14.226Z,91.90
2019-01-26T04:04:46.637Z,91.90
2019-01-26T04:05:19.470Z,92.00
2019-01-26T04:05:51.940Z,92.00
2019-01-26T04:06:25.047Z,92.40
2019-01-26T04:06:57.530Z,92.50
2019-01-26T04:07:30.005Z,92.60
2019-01-26T04:08:02.570Z,92.80
2019-01-26T04:08:35.339Z,92.90
2019-01-26T04:09:08.666Z,92.90
2019-01-26T04:09:41.149Z,92.80
2019-01-26T04:10:13.848Z,92.70
2019-01-26T04:10:46.367Z,92.60
2019-01-26T04:11:18.796Z,92.70
2019-01-26T04:11:51.276Z,92.70
2019-01-26T04:12:24.067Z,92.80
2019-01-26T04:12:56.539Z,92.90
2019-01-26T04:13:29.011Z,93.00
2019-01-26T04:14:01.484Z,93.00
2019-01-26T04:14:34.190Z,93.00
2019-01-26T04:15:08.791Z,93.00
2019-01-26T04:15:41.697Z,93.10
2019-01-26T04:16:14.186Z,93.10
2019-01-26T04:16:46.964Z,93.30
2019-01-26T04:17:21.904Z,93.40
2019-01-26T04:17:54.022Z,93.50
2019-01-26T04:18:26.499Z,93.60
2019-01-26T04:18:58.968Z,93.60
2019-01-26T04:19:31.448Z,93.70
2019-01-26T04:20:05.055Z,93.80
2019-01-26T04:20:37.551Z,93.50
2019-01-26T04:21:10.139Z,93.40
2019-01-26T04:21:42.621Z,93.30
2019-01-26T04:22:15.105Z,93.20
2019-01-26T04:22:48.000Z,93.40
2019-01-26T04:23:20.797Z,93.30
2019-01-26T04:23:53.261Z,93.20
2019-01-26T04:24:25.725Z,93.30
2019-01-26T04:24:58.195Z,93.20
2019-01-26T04:25:31.040Z,93.10
2019-01-26T04:26:03.550Z,93.00
2019-01-26T04:26:36.018Z,93.10
2019-01-26T04:27:08.498Z,93.40
2019-01-26T04:27:40.967Z,93.50
2019-01-26T04:28:14.834Z,93.50
2019-01-26T04:28:47.318Z,93.40
2019-01-26T04:29:19.795Z,93.30
2019-01-26T04:29:52.260Z,93.30
2019-01-26T04:30:25.022Z,93.40
2019-01-26T04:30:57.544Z,93.60
2019-01-26T04:31:30.043Z,93.90
2019-01-26T04:32:02.877Z,93.90
2019-01-26T04:32:35.334Z,94.00
2019-01-26T04:33:08.130Z,94.10
2019-01-26T04:33:40.607Z,94.10
2019-01-26T04:34:13.091Z,94.00
2019-01-26T04:34:45.550Z,94.10
2019-01-26T04:35:18.036Z,94.00
2019-01-26T04:35:50.505Z,93.90
2019-01-26T04:36:22.992Z,93.70
2019-01-26T04:36:55.832Z,93.80
2019-01-26T04:37:28.302Z,93.80
2019-01-26T04:38:00.755Z,93.70
2019-01-26T04:38:33.582Z,94.00
2019-01-26T04:39:07.864Z,94.10
2019-01-26T04:39:40.340Z,93.80
2019-01-26T04:40:14.551Z,93.70
2019-01-26T04:40:47.029Z,93.50
2019-01-26T04:41:19.816Z,93.60
2019-01-26T04:41:52.293Z,93.60
2019-01-26T04:42:25.107Z,93.50
2019-01-26T04:42:58.136Z,93.70
2019-01-26T04:43:31.032Z,93.80
2019-01-26T04:44:04.107Z,93.70
2019-01-26T04:44:37.015Z,93.60
2019-01-26T04:45:12.322Z,93.70
2019-01-26T04:45:44.803Z,93.60
2019-01-26T04:46:17.276Z,93.70
2019-01-26T04:46:49.771Z,93.70
2019-01-26T04:47:30.545Z,93.60
2019-01-26T04:47:56.833Z,93.70
2019-01-26T04:48:29.295Z,93.90
2019-01-26T04:49:02.223Z,94.00
2019-01-26T04:49:34.695Z,94.00
2019-01-26T04:50:09.097Z,94.10
2019-01-26T04:50:42.518Z,93.70
2019-01-26T04:51:15.143Z,93.50
2019-01-26T04:51:47.607Z,93.70
2019-01-26T04:52:20.749Z,93.70
2019-01-26T04:52:53.214Z,93.70
2019-01-26T04:53:26.069Z,94.00
2019-01-26T04:53:58.539Z,93.90
2019-01-26T04:54:31.396Z,93.90
2019-01-26T04:55:04.431Z,93.90
2019-01-26T04:55:36.900Z,93.90
2019-01-26T04:56:09.368Z,93.90
2019-01-26T04:56:41.825Z,94.00
2019-01-26T04:57:14.294Z,94.00
2019-01-26T04:57:46.794Z,94.20
2019-01-26T04:58:19.283Z,93.80
2019-01-26T04:58:51.775Z,93.70
2019-01-26T04:59:24.251Z,93.50
2019-01-26T04:59:56.731Z,93.70
2019-01-26T05:00:29.210Z,93.80
2019-01-26T05:01:02.075Z,93.80
2019-01-26T05:01:34.570Z,93.70
2019-01-26T05:02:07.052Z,93.70
2019-01-26T05:02:39.513Z,93.90
2019-01-26T05:03:11.978Z,94.00
2019-01-26T05:03:44.443Z,94.20
2019-01-26T05:04:16.958Z,94.40
2019-01-26T05:04:49.794Z,94.30
2019-01-26T05:05:22.269Z,94.20
2019-01-26T05:05:54.739Z,94.20
2019-01-26T05:06:27.517Z,94.30
2019-01-26T05:07:00.454Z,94.40
2019-01-26T05:07:33.249Z,94.70
2019-01-26T05:08:05.865Z,94.50
2019-01-26T05:08:38.325Z,94.40
2019-01-26T05:09:10.797Z,94.60
2019-01-26T05:09:43.313Z,94.80
2019-01-26T05:10:16.379Z,95.00
2019-01-26T05:10:48.833Z,95.20
2019-01-26T05:11:21.680Z,95.20
2019-01-26T05:11:54.163Z,95.40
2019-01-26T05:12:26.628Z,95.30
2019-01-26T05:12:59.094Z,95.50
2019-01-26T05:13:34.350Z,95.70
2019-01-26T05:14:06.840Z,95.70
2019-01-26T05:14:39.302Z,95.70
2019-01-26T05:15:13.099Z,95.80
2019-01-26T05:15:46.009Z,95.70
2019-01-26T05:16:18.488Z,95.70
2019-01-26T05:16:51.336Z,95.90
2019-01-26T05:17:23.806Z,96.10
2019-01-26T05:17:56.562Z,96.10
2019-01-26T05:18:28.795Z,96.10
2019-01-26T05:19:01.262Z,96.20
2019-01-26T05:19:33.744Z,96.40
2019-01-26T05:20:09.693Z,96.50
2019-01-26T05:20:42.183Z,96.60
2019-01-26T05:21:14.663Z,96.70
2019-01-26T05:21:47.143Z,96.80
2019-01-26T05:22:19.627Z,96.80
2019-01-26T05:22:52.102Z,96.80
2019-01-26T05:23:24.583Z,96.70
2019-01-26T05:23:57.391Z,96.60
2019-01-26T05:24:29.882Z,96.50
2019-01-26T05:25:02.363Z,96.30
2019-01-26T05:25:35.606Z,96.40
2019-01-26T05:26:08.576Z,96.50
2019-01-26T05:26:41.048Z,96.40
2019-01-26T05:27:13.901Z,96.40
2019-01-26T05:27:47.131Z,96.50
2019-01-26T05:28:19.533Z,96.60
2019-01-26T05:28:52.487Z,96.60
2019-01-26T05:29:24.950Z,96.70
2019-01-26T05:29:57.429Z,96.50
2019-01-26T05:30:30.002Z,96.50
2019-01-26T05:31:02.469Z,96.60
2019-01-26T05:31:35.390Z,96.60
2019-01-26T05:32:08.205Z,96.50
2019-01-26T05:32:40.687Z,96.70
2019-01-26T05:33:13.527Z,96.50
2019-01-26T05:33:46.012Z,96.50
2019-01-26T05:34:18.862Z,96.50
2019-01-26T05:34:51.744Z,96.50
2019-01-26T05:35:24.215Z,96.50
2019-01-26T05:35:56.705Z,96.50
2019-01-26T05:36:29.181Z,96.50
2019-01-26T05:37:01.703Z,96.50
2019-01-26T05:37:34.859Z,96.50
2019-01-26T05:38:07.618Z,96.50
2019-01-26T05:38:40.094Z,96.50
2019-01-26T05:39:12.566Z,96.70
2019-01-26T05:39:45.057Z,96.50
2019-01-26T05:40:17.973Z,96.60
2019-01-26T05:40:50.434Z,96.60
2019-01-26T05:41:23.212Z,96.80
2019-01-26T05:41:55.684Z,96.60
2019-01-26T05:42:28.183Z,96.60
2019-01-26T05:43:01.633Z,96.80
2019-01-26T05:43:34.123Z,96.80
2019-01-26T05:44:06.934Z,96.70
2019-01-26T05:44:39.407Z,96.60
2019-01-26T05:45:16.212Z,96.70
2019-01-26T05:45:48.680Z,96.90
2019-01-26T05:46:21.160Z,97.20
2019-01-26T05:46:53.621Z,97.20
2019-01-26T05:47:26.086Z,97.20
2019-01-26T05:47:58.637Z,97.30
2019-01-26T05:48:31.538Z,97.40
2019-01-26T05:49:04.011Z,97.60
2019-01-26T05:49:36.489Z,97.50
2019-01-26T05:50:12.114Z,97.60
2019-01-26T05:50:44.977Z,97.40
2019-01-26T05:51:17.441Z,97.30
2019-01-26T05:51:49.910Z,97.20
2019-01-26T05:52:22.389Z,97.00
2019-01-26T05:52:55.537Z,97.00
2019-01-26T05:53:28.050Z,97.00
2019-01-26T05:54:00.552Z,97.00
2019-01-26T05:54:33.017Z,97.00
2019-01-26T05:55:06.194Z,97.10
2019-01-26T05:55:39.073Z,97.10
2019-01-26T05:56:11.548Z,97.10
2019-01-26T05:56:44.031Z,97.20
2019-01-26T05:57:16.494Z,97.30
2019-01-26T05:57:49.295Z,97.30
2019-01-26T05:58:22.092Z,97.50
2019-01-26T05:58:54.903Z,97.60
2019-01-26T05:59:27.380Z,97.50
2019-01-26T06:00:00.222Z,97.50
2019-01-26T06:00:36.006Z,97.40
2019-01-26T06:01:08.757Z,97.30
2019-01-26T06:01:41.670Z,97.40
2019-01-26T06:02:14.150Z,97.40
2019-01-26T06:02:46.623Z,97.30
2019-01-26T06:03:19.115Z,97.20
2019-01-26T06:03:51.582Z,97.20
2019-01-26T06:04:24.069Z,97.50
2019-01-26T06:04:56.542Z,97.30
2019-01-26T06:05:29.028Z,97.10
2019-01-26T06:06:01.489Z,97.00
2019-01-26T06:06:33.964Z,97.00
2019-01-26T06:07:07.097Z,96.90
2019-01-26T06:07:39.588Z,97.00
2019-01-26T06:08:12.042Z,97.00
2019-01-26T06:08:44.509Z,97.00
2019-01-26T06:09:16.986Z,97.00
2019-01-26T06:09:49.503Z,97.10
2019-01-26T06:10:21.993Z,97.10
2019-01-26T06:10:54.450Z,97.10
2019-01-26T06:11:26.924Z,97.10
2019-01-26T06:11:59.398Z,97.20
2019-01-26T06:12:32.011Z,97.20
2019-01-26T06:13:05.073Z,97.00
2019-01-26T06:13:37.852Z,97.00
2019-01-26T06:14:10.323Z,96.90
2019-01-26T06:14:42.808Z,97.00
2019-01-26T06:15:15.518Z,96.90
2019-01-26T06:15:47.991Z,96.90
2019-01-26T06:16:20.771Z,96.90
2019-01-26T06:16:53.657Z,96.90
2019-01-26T06:17:26.126Z,97.00
2019-01-26T06:17:58.971Z,97.00
2019-01-26T06:18:31.730Z,97.10
2019-01-26T06:19:04.211Z,97.10
2019-01-26T06:19:36.688Z,97.20
2019-01-26T06:20:09.839Z,97.10
2019-01-26T06:20:42.712Z,97.30
2019-01-26T06:21:15.186Z,97.30
2019-01-26T06:21:47.650Z,97.30
2019-01-26T06:22:20.128Z,97.60
2019-01-26T06:22:53.293Z,97.40
2019-01-26T06:23:26.139Z,97.50
2019-01-26T06:23:58.611Z,97.40
2019-01-26T06:24:31.074Z,97.40
2019-01-26T06:25:04.373Z,97.40
2019-01-26T06:25:36.834Z,97.40
2019-01-26T06:26:09.338Z,97.40
2019-01-26T06:26:41.943Z,97.40
2019-01-26T06:27:14.414Z,97.40
2019-01-26T06:27:46.933Z,97.30
2019-01-26T06:28:19.408Z,97.20
2019-01-26T06:28:51.877Z,97.30
2019-01-26T06:29:24.353Z,97.30
2019-01-26T06:29:57.128Z,97.30
2019-01-26T06:30:29.594Z,97.40
2019-01-26T06:31:02.071Z,97.30
2019-01-26T06:31:34.841Z,97.30
2019-01-26T06:32:07.356Z,97.20
2019-01-26T06:32:39.840Z,97.30
2019-01-26T06:33:12.327Z,97.30
2019-01-26T06:33:44.786Z,97.30
2019-01-26T06:34:17.558Z,97.30
2019-01-26T06:34:50.009Z,97.40
2019-01-26T06:35:22.698Z,97.40
2019-01-26T06:35:55.169Z,97.50
2019-01-26T06:36:27.638Z,97.50
2019-01-26T06:37:00.653Z,97.60
2019-01-26T06:37:33.136Z,97.50
2019-01-26T06:38:05.961Z,97.50
2019-01-26T06:38:38.422Z,97.50
2019-01-26T06:39:10.893Z,97.60
2019-01-26T06:39:43.360Z,97.60
2019-01-26T06:40:16.767Z,97.50
2019-01-26T06:40:49.245Z,97.40
2019-01-26T06:41:21.715Z,97.20
2019-01-26T06:41:54.182Z,97.30
2019-01-26T06:42:26.679Z,97.10
2019-01-26T06:42:59.902Z,97.40
2019-01-26T06:43:32.713Z,97.10
2019-01-26T06:44:05.189Z,97.30
2019-01-26T06:44:37.671Z,97.20
2019-01-26T06:45:10.726Z,97.00
2019-01-26T06:45:46.414Z,97.20
2019-01-26T06:46:18.894Z,97.00
2019-01-26T06:46:51.358Z,97.10
2019-01-26T06:47:23.835Z,97.20
2019-01-26T06:48:02.122Z,97.20
2019-01-26T06:48:30.616Z,97.30
2019-01-26T06:49:03.204Z,97.40
2019-01-26T06:49:36.054Z,97.50
2019-01-26T06:50:11.954Z,97.50
2019-01-26T06:50:44.947Z,97.50
2019-01-26T06:51:17.414Z,97.50
2019-01-26T06:51:55.473Z,97.60
2019-01-26T06:52:27.944Z,97.60
2019-01-26T06:53:00.454Z,97.70
2019-01-26T06:53:33.318Z,97.70
2019-01-26T06:54:05.801Z,97.70
2019-01-26T06:54:38.628Z,97.70
2019-01-26T06:55:11.408Z,97.80
2019-01-26T06:55:44.263Z,97.90
2019-01-26T06:56:16.729Z,97.90
2019-01-26T06:56:49.317Z,97.90
2019-01-26T06:57:22.160Z,98.00
2019-01-26T06:57:54.927Z,97.90
2019-01-26T06:58:27.799Z,98.10
2019-01-26T06:59:00.558Z,98.10
2019-01-26T06:59:33.331Z,98.10
2019-01-26T07:00:09.094Z,98.10
2019-01-26T07:00:41.577Z,98.10
2019-01-26T07:01:14.046Z,98.10
2019-01-26T07:01:46.542Z,98.10